sensor_id;sensor_type;location;lat;lon;timestamp;temperature;humidity
38854;DHT22;24606;51.992;4.198;2023-12-22T00:03:17;9.80;99.90
38854;DHT22;24606;51.992;4.198;2023-12-22T00:08:19;9.90;99.90
38854;DHT22;24606;51.992;4.198;2023-12-22T00:13:23;10.10;99.90
38854;DHT22;24606;51.992;4.198;2023-12-22T00:18:25;9.90;99.90
38854;DHT22;24606;51.992;4.198;2023-12-22T00:23:27;10.00;99.90
38854;DHT22;24606;51.992;4.198;2023-12-22T00:28:30;9.80;99.90
38854;DHT22;24606;51.992;4.198;2023-12-22T00:33:34;9.90;99.90
38854;DHT22;24606;51.992;4.198;2023-12-22T00:38:36;10.00;99.90
38854;DHT22;24606;51.992;4.198;2023-12-22T00:43:41;9.90;99.90
38854;DHT22;24606;51.992;4.198;2023-12-22T00:48:43;9.60;99.90
38854;DHT22;24606;51.992;4.198;2023-12-22T00:53:46;9.60;99.90
38854;DHT22;24606;51.992;4.198;2023-12-22T00:58:50;9.70;99.90
38854;DHT22;24606;51.992;4.198;2023-12-22T01:03:52;9.70;99.90
38854;DHT22;24606;51.992;4.198;2023-12-22T01:08:57;9.80;99.90
38854;DHT22;24606;51.992;4.198;2023-12-22T01:14:01;10.10;99.90
38854;DHT22;24606;51.992;4.198;2023-12-22T01:19:03;10.00;99.90
38854;DHT22;24606;51.992;4.198;2023-12-22T01:24:05;10.10;99.90
38854;DHT22;24606;51.992;4.198;2023-12-22T01:29:09;9.60;99.90
38854;DHT22;24606;51.992;4.198;2023-12-22T01:34:12;9.70;99.90
38854;DHT22;24606;51.992;4.198;2023-12-22T01:39:14;9.60;99.90
38854;DHT22;24606;51.992;4.198;2023-12-22T01:44:18;9.60;99.90
38854;DHT22;24606;51.992;4.198;2023-12-22T01:49:21;9.90;99.90
38854;DHT22;24606;51.992;4.198;2023-12-22T01:54:24;9.90;99.90
38854;DHT22;24606;51.992;4.198;2023-12-22T01:59:28;9.90;99.90
38854;DHT22;24606;51.992;4.198;2023-12-22T02:04:34;9.80;99.90
38854;DHT22;24606;51.992;4.198;2023-12-22T02:09:38;9.70;99.90
38854;DHT22;24606;51.992;4.198;2023-12-22T02:14:43;10.10;99.90
38854;DHT22;24606;51.992;4.198;2023-12-22T02:19:46;10.30;99.90
38854;DHT22;24606;51.992;4.198;2023-12-22T02:24:51;10.00;99.90
38854;DHT22;24606;51.992;4.198;2023-12-22T02:29:57;10.00;99.90
38854;DHT22;24606;51.992;4.198;2023-12-22T02:35:08;9.90;99.90
38854;DHT22;24606;51.992;4.198;2023-12-22T02:40:14;10.00;99.90
38854;DHT22;24606;51.992;4.198;2023-12-22T02:45:18;9.90;99.90
38854;DHT22;24606;51.992;4.198;2023-12-22T02:50:20;10.00;99.90
38854;DHT22;24606;51.992;4.198;2023-12-22T02:55:24;10.20;99.90
38854;DHT22;24606;51.992;4.198;2023-12-22T03:00:27;10.20;99.90
38854;DHT22;24606;51.992;4.198;2023-12-22T03:05:29;9.90;99.90
38854;DHT22;24606;51.992;4.198;2023-12-22T03:10:33;9.90;99.90
38854;DHT22;24606;51.992;4.198;2023-12-22T03:15:35;10.00;99.90
38854;DHT22;24606;51.992;4.198;2023-12-22T03:20:38;10.10;99.90
38854;DHT22;24606;51.992;4.198;2023-12-22T03:25:42;10.30;99.90
38854;DHT22;24606;51.992;4.198;2023-12-22T03:30:45;10.10;99.90
38854;DHT22;24606;51.992;4.198;2023-12-22T03:35:50;10.30;99.90
38854;DHT22;24606;51.992;4.198;2023-12-22T03:41:03;10.00;99.90
38854;DHT22;24606;51.992;4.198;2023-12-22T03:46:05;10.10;99.90
38854;DHT22;24606;51.992;4.198;2023-12-22T03:51:11;10.10;99.90
38854;DHT22;24606;51.992;4.198;2023-12-22T03:56:16;10.00;99.90
38854;DHT22;24606;51.992;4.198;2023-12-22T04:15:31;10.10;99.90
38854;DHT22;24606;51.992;4.198;2023-12-22T04:20:34;10.00;99.90
38854;DHT22;24606;51.992;4.198;2023-12-22T04:25:35;10.10;99.90
38854;DHT22;24606;51.992;4.198;2023-12-22T04:30:39;10.30;99.90
38854;DHT22;24606;51.992;4.198;2023-12-22T04:35:43;9.90;99.90
38854;DHT22;24606;51.992;4.198;2023-12-22T04:40:45;10.40;99.90
38854;DHT22;24606;51.992;4.198;2023-12-22T04:45:49;10.20;99.90
38854;DHT22;24606;51.992;4.198;2023-12-22T04:50:53;10.10;99.90
38854;DHT22;24606;51.992;4.198;2023-12-22T04:55:55;9.90;99.90
38854;DHT22;24606;51.992;4.198;2023-12-22T05:00:58;10.00;99.90
38854;DHT22;24606;51.992;4.198;2023-12-22T05:06:01;10.00;99.90
38854;DHT22;24606;51.992;4.198;2023-12-22T05:11:03;9.80;99.90
38854;DHT22;24606;51.992;4.198;2023-12-22T05:16:07;10.10;99.90
38854;DHT22;24606;51.992;4.198;2023-12-22T05:21:12;9.90;99.90
38854;DHT22;24606;51.992;4.198;2023-12-22T05:26:17;10.20;99.90
38854;DHT22;24606;51.992;4.198;2023-12-22T05:31:21;10.10;99.90
38854;DHT22;24606;51.992;4.198;2023-12-22T05:36:23;9.90;99.90
38854;DHT22;24606;51.992;4.198;2023-12-22T05:41:27;10.20;99.90
38854;DHT22;24606;51.992;4.198;2023-12-22T05:46:31;10.00;99.90
38854;DHT22;24606;51.992;4.198;2023-12-22T05:51:38;10.00;99.90
38854;DHT22;24606;51.992;4.198;2023-12-22T05:56:40;10.10;99.90
38854;DHT22;24606;51.992;4.198;2023-12-22T06:01:44;10.10;99.90
38854;DHT22;24606;51.992;4.198;2023-12-22T06:06:46;10.20;99.90
38854;DHT22;24606;51.992;4.198;2023-12-22T06:11:48;10.10;99.90
38854;DHT22;24606;51.992;4.198;2023-12-22T06:16:52;10.00;99.90
38854;DHT22;24606;51.992;4.198;2023-12-22T06:21:57;10.10;99.90
38854;DHT22;24606;51.992;4.198;2023-12-22T06:27:00;10.00;99.90
38854;DHT22;24606;51.992;4.198;2023-12-22T06:32:05;10.30;99.90
38854;DHT22;24606;51.992;4.198;2023-12-22T06:37:08;10.20;99.90
38854;DHT22;24606;51.992;4.198;2023-12-22T06:42:13;10.00;99.90
38854;DHT22;24606;51.992;4.198;2023-12-22T06:47:16;10.20;99.90
38854;DHT22;24606;51.992;4.198;2023-12-22T06:52:19;10.10;99.90
38854;DHT22;24606;51.992;4.198;2023-12-22T06:57:21;10.10;99.90
38854;DHT22;24606;51.992;4.198;2023-12-22T07:02:25;10.00;99.90
38854;DHT22;24606;51.992;4.198;2023-12-22T07:07:29;10.20;99.90
38854;DHT22;24606;51.992;4.198;2023-12-22T07:12:32;10.20;99.90
38854;DHT22;24606;51.992;4.198;2023-12-22T07:17:36;10.10;99.90
38854;DHT22;24606;51.992;4.198;2023-12-22T07:22:40;9.80;99.90
38854;DHT22;24606;51.992;4.198;2023-12-22T07:27:43;10.00;99.90
38854;DHT22;24606;51.992;4.198;2023-12-22T07:32:46;10.00;99.90
38854;DHT22;24606;51.992;4.198;2023-12-22T07:37:52;10.10;99.90
38854;DHT22;24606;51.992;4.198;2023-12-22T07:42:54;9.90;99.90
38854;DHT22;24606;51.992;4.198;2023-12-22T07:47:58;10.00;99.90
38854;DHT22;24606;51.992;4.198;2023-12-22T07:53:01;9.80;99.90
38854;DHT22;24606;51.992;4.198;2023-12-22T07:58:03;10.00;99.90
38854;DHT22;24606;51.992;4.198;2023-12-22T08:03:07;9.90;99.90
38854;DHT22;24606;51.992;4.198;2023-12-22T08:08:10;10.00;99.90
38854;DHT22;24606;51.992;4.198;2023-12-22T08:13:14;10.20;99.90
38854;DHT22;24606;51.992;4.198;2023-12-22T08:18:20;10.20;99.90
38854;DHT22;24606;51.992;4.198;2023-12-22T08:23:22;10.00;99.90
38854;DHT22;24606;51.992;4.198;2023-12-22T08:28:24;10.10;99.90
38854;DHT22;24606;51.992;4.198;2023-12-22T08:33:28;10.00;99.90
38854;DHT22;24606;51.992;4.198;2023-12-22T08:38:32;10.00;99.90
38854;DHT22;24606;51.992;4.198;2023-12-22T08:43:35;10.20;99.90
38854;DHT22;24606;51.992;4.198;2023-12-22T08:48:43;10.20;99.90
38854;DHT22;24606;51.992;4.198;2023-12-22T08:53:45;10.10;99.90
38854;DHT22;24606;51.992;4.198;2023-12-22T08:58:47;10.20;99.90
38854;DHT22;24606;51.992;4.198;2023-12-22T09:03:53;10.40;99.90
38854;DHT22;24606;51.992;4.198;2023-12-22T09:08:55;10.50;99.90
38854;DHT22;24606;51.992;4.198;2023-12-22T09:13:57;10.50;99.90
38854;DHT22;24606;51.992;4.198;2023-12-22T09:19:04;10.50;99.90
38854;DHT22;24606;51.992;4.198;2023-12-22T09:24:07;10.40;99.90
38854;DHT22;24606;51.992;4.198;2023-12-22T09:29:10;10.60;99.90
38854;DHT22;24606;51.992;4.198;2023-12-22T09:34:14;10.40;99.90
38854;DHT22;24606;51.992;4.198;2023-12-22T09:39:16;10.60;99.90
38854;DHT22;24606;51.992;4.198;2023-12-22T09:44:19;10.60;99.90
38854;DHT22;24606;51.992;4.198;2023-12-22T09:49:24;10.70;99.90
38854;DHT22;24606;51.992;4.198;2023-12-22T09:54:26;10.60;99.90
38854;DHT22;24606;51.992;4.198;2023-12-22T09:59:29;10.60;99.90
38854;DHT22;24606;51.992;4.198;2023-12-22T10:04:33;10.70;99.90
38854;DHT22;24606;51.992;4.198;2023-12-22T10:09:36;10.80;99.90
38854;DHT22;24606;51.992;4.198;2023-12-22T10:14:39;10.80;99.90
38854;DHT22;24606;51.992;4.198;2023-12-22T10:19:43;10.90;99.90
38854;DHT22;24606;51.992;4.198;2023-12-22T10:24:46;11.00;99.90
38854;DHT22;24606;51.992;4.198;2023-12-22T10:29:48;11.00;99.90
38854;DHT22;24606;51.992;4.198;2023-12-22T10:34:52;11.10;99.90
38854;DHT22;24606;51.992;4.198;2023-12-22T10:39:56;11.20;99.90
38854;DHT22;24606;51.992;4.198;2023-12-22T10:45:00;10.90;99.90
38854;DHT22;24606;51.992;4.198;2023-12-22T10:50:05;10.90;99.90
38854;DHT22;24606;51.992;4.198;2023-12-22T10:55:08;11.00;99.90
38854;DHT22;24606;51.992;4.198;2023-12-22T11:00:12;10.90;99.90
38854;DHT22;24606;51.992;4.198;2023-12-22T11:05:18;11.00;99.90
38854;DHT22;24606;51.992;4.198;2023-12-22T11:10:23;11.10;99.90
38854;DHT22;24606;51.992;4.198;2023-12-22T11:15:27;10.90;99.90
38854;DHT22;24606;51.992;4.198;2023-12-22T11:20:36;10.80;99.90
38854;DHT22;24606;51.992;4.198;2023-12-22T11:25:40;11.00;99.90
38854;DHT22;24606;51.992;4.198;2023-12-22T11:30:42;11.00;99.90
38854;DHT22;24606;51.992;4.198;2023-12-22T11:35:47;10.90;99.90
38854;DHT22;24606;51.992;4.198;2023-12-22T11:40:53;11.00;99.90
38854;DHT22;24606;51.992;4.198;2023-12-22T11:45:56;11.30;99.90
38854;DHT22;24606;51.992;4.198;2023-12-22T11:51:12;11.00;99.90
38854;DHT22;24606;51.992;4.198;2023-12-22T11:56:15;11.30;99.90
38854;DHT22;24606;51.992;4.198;2023-12-22T12:01:20;11.10;99.90
38854;DHT22;24606;51.992;4.198;2023-12-22T12:06:32;11.10;99.90
38854;DHT22;24606;51.992;4.198;2023-12-22T12:12:08;11.00;99.90
38854;DHT22;24606;51.992;4.198;2023-12-22T12:17:11;11.00;99.90
38854;DHT22;24606;51.992;4.198;2023-12-22T12:22:15;11.30;99.90
38854;DHT22;24606;51.992;4.198;2023-12-22T12:27:18;11.30;99.90
38854;DHT22;24606;51.992;4.198;2023-12-22T12:32:23;11.30;99.90
38854;DHT22;24606;51.992;4.198;2023-12-22T12:37:27;11.10;99.90
38854;DHT22;24606;51.992;4.198;2023-12-22T12:42:32;11.10;99.90
38854;DHT22;24606;51.992;4.198;2023-12-22T12:47:34;11.10;99.90
38854;DHT22;24606;51.992;4.198;2023-12-22T12:52:38;11.20;99.90
38854;DHT22;24606;51.992;4.198;2023-12-22T12:57:42;11.00;99.90
38854;DHT22;24606;51.992;4.198;2023-12-22T13:02:45;11.20;99.90
38854;DHT22;24606;51.992;4.198;2023-12-22T13:07:48;11.50;99.90
38854;DHT22;24606;51.992;4.198;2023-12-22T13:12:51;11.20;99.90
38854;DHT22;24606;51.992;4.198;2023-12-22T13:17:58;11.30;99.90
38854;DHT22;24606;51.992;4.198;2023-12-22T13:23:02;11.20;99.90
38854;DHT22;24606;51.992;4.198;2023-12-22T13:28:04;11.50;99.90
38854;DHT22;24606;51.992;4.198;2023-12-22T13:33:07;11.60;99.90
38854;DHT22;24606;51.992;4.198;2023-12-22T13:38:12;11.50;99.90
38854;DHT22;24606;51.992;4.198;2023-12-22T13:43:15;11.30;99.90
38854;DHT22;24606;51.992;4.198;2023-12-22T13:48:17;11.40;99.90
38854;DHT22;24606;51.992;4.198;2023-12-22T13:53:20;11.30;99.90
38854;DHT22;24606;51.992;4.198;2023-12-22T13:58:23;11.40;99.90
38854;DHT22;24606;51.992;4.198;2023-12-22T14:03:25;11.40;99.90
38854;DHT22;24606;51.992;4.198;2023-12-22T14:08:28;11.40;99.90
38854;DHT22;24606;51.992;4.198;2023-12-22T14:13:31;11.70;99.90
38854;DHT22;24606;51.992;4.198;2023-12-22T14:18:35;11.60;99.90
38854;DHT22;24606;51.992;4.198;2023-12-22T14:23:38;11.50;99.90
38854;DHT22;24606;51.992;4.198;2023-12-22T14:28:41;11.60;99.90
38854;DHT22;24606;51.992;4.198;2023-12-22T14:33:43;11.60;99.90
38854;DHT22;24606;51.992;4.198;2023-12-22T14:38:46;11.60;99.90
38854;DHT22;24606;51.992;4.198;2023-12-22T14:43:48;11.50;99.90
38854;DHT22;24606;51.992;4.198;2023-12-22T14:48:51;11.50;99.90
38854;DHT22;24606;51.992;4.198;2023-12-22T14:53:56;11.50;99.90
38854;DHT22;24606;51.992;4.198;2023-12-22T14:58:58;11.40;99.90
38854;DHT22;24606;51.992;4.198;2023-12-22T15:04:00;11.60;99.90
38854;DHT22;24606;51.992;4.198;2023-12-22T15:09:04;11.60;99.90
38854;DHT22;24606;51.992;4.198;2023-12-22T15:14:06;11.40;99.90
38854;DHT22;24606;51.992;4.198;2023-12-22T15:19:08;11.50;99.90
38854;DHT22;24606;51.992;4.198;2023-12-22T15:24:12;11.30;99.90
38854;DHT22;24606;51.992;4.198;2023-12-22T15:29:14;11.10;99.90
38854;DHT22;24606;51.992;4.198;2023-12-22T15:34:17;11.20;99.90
38854;DHT22;24606;51.992;4.198;2023-12-22T15:39:21;11.30;99.90
38854;DHT22;24606;51.992;4.198;2023-12-22T15:44:23;11.30;99.90
38854;DHT22;24606;51.992;4.198;2023-12-22T15:49:25;10.90;99.90
38854;DHT22;24606;51.992;4.198;2023-12-22T15:54:29;11.10;99.90
38854;DHT22;24606;51.992;4.198;2023-12-22T15:59:32;11.10;99.90
38854;DHT22;24606;51.992;4.198;2023-12-22T16:04:34;11.00;99.90
38854;DHT22;24606;51.992;4.198;2023-12-22T16:09:38;11.20;99.90
38854;DHT22;24606;51.992;4.198;2023-12-22T16:14:40;11.30;99.90
38854;DHT22;24606;51.992;4.198;2023-12-22T16:19:42;11.30;99.90
38854;DHT22;24606;51.992;4.198;2023-12-22T16:24:47;11.10;99.90
38854;DHT22;24606;51.992;4.198;2023-12-22T16:29:49;11.10;99.90
38854;DHT22;24606;51.992;4.198;2023-12-22T16:34:51;11.10;99.90
38854;DHT22;24606;51.992;4.198;2023-12-22T16:39:55;11.00;99.90
38854;DHT22;24606;51.992;4.198;2023-12-22T16:44:57;11.20;99.90
38854;DHT22;24606;51.992;4.198;2023-12-22T16:50:00;11.20;99.90
38854;DHT22;24606;51.992;4.198;2023-12-22T16:55:04;11.30;99.90
38854;DHT22;24606;51.992;4.198;2023-12-22T17:00:07;11.10;99.90
38854;DHT22;24606;51.992;4.198;2023-12-22T17:05:10;10.90;99.90
38854;DHT22;24606;51.992;4.198;2023-12-22T17:10:15;10.90;99.90
38854;DHT22;24606;51.992;4.198;2023-12-22T17:15:17;10.80;99.90
38854;DHT22;24606;51.992;4.198;2023-12-22T17:20:19;10.80;99.90
38854;DHT22;24606;51.992;4.198;2023-12-22T17:25:23;10.90;99.90
38854;DHT22;24606;51.992;4.198;2023-12-22T17:30:25;10.80;99.90
38854;DHT22;24606;51.992;4.198;2023-12-22T17:35:28;10.80;99.90
38854;DHT22;24606;51.992;4.198;2023-12-22T17:40:31;10.70;99.90
38854;DHT22;24606;51.992;4.198;2023-12-22T17:45:34;10.80;99.90
38854;DHT22;24606;51.992;4.198;2023-12-22T17:50:36;11.00;99.90
38854;DHT22;24606;51.992;4.198;2023-12-22T17:55:40;11.00;99.90
38854;DHT22;24606;51.992;4.198;2023-12-22T18:00:42;11.10;99.90
38854;DHT22;24606;51.992;4.198;2023-12-22T18:05:45;10.70;99.90
38854;DHT22;24606;51.992;4.198;2023-12-22T18:10:49;10.90;99.90
38854;DHT22;24606;51.992;4.198;2023-12-22T18:15:52;11.00;99.90
38854;DHT22;24606;51.992;4.198;2023-12-22T18:20:55;10.90;99.90
38854;DHT22;24606;51.992;4.198;2023-12-22T18:25:58;10.80;99.90
38854;DHT22;24606;51.992;4.198;2023-12-22T18:31:01;10.80;99.90
38854;DHT22;24606;51.992;4.198;2023-12-22T18:36:04;10.90;99.90
38854;DHT22;24606;51.992;4.198;2023-12-22T18:41:09;11.00;99.90
38854;DHT22;24606;51.992;4.198;2023-12-22T18:46:11;11.10;99.90
38854;DHT22;24606;51.992;4.198;2023-12-22T18:51:13;10.80;99.90
38854;DHT22;24606;51.992;4.198;2023-12-22T18:56:20;10.80;99.90
38854;DHT22;24606;51.992;4.198;2023-12-22T19:01:23;10.70;99.90
38854;DHT22;24606;51.992;4.198;2023-12-22T19:06:25;10.80;99.90
38854;DHT22;24606;51.992;4.198;2023-12-22T19:11:30;10.70;99.90
38854;DHT22;24606;51.992;4.198;2023-12-22T19:16:32;10.70;99.90
38854;DHT22;24606;51.992;4.198;2023-12-22T19:21:34;10.80;99.90
38854;DHT22;24606;51.992;4.198;2023-12-22T19:26:39;10.80;99.90
38854;DHT22;24606;51.992;4.198;2023-12-22T19:31:42;10.70;99.90
38854;DHT22;24606;51.992;4.198;2023-12-22T19:36:44;10.70;99.90
38854;DHT22;24606;51.992;4.198;2023-12-22T19:41:48;10.60;99.90
38854;DHT22;24606;51.992;4.198;2023-12-22T19:46:50;10.80;99.90
38854;DHT22;24606;51.992;4.198;2023-12-22T19:51:53;10.50;99.90
38854;DHT22;24606;51.992;4.198;2023-12-22T19:56:57;10.50;99.90
38854;DHT22;24606;51.992;4.198;2023-12-22T20:01:59;10.50;99.90
38854;DHT22;24606;51.992;4.198;2023-12-22T20:07:01;10.70;99.90
38854;DHT22;24606;51.992;4.198;2023-12-22T20:12:05;10.70;99.90
38854;DHT22;24606;51.992;4.198;2023-12-22T20:17:07;10.60;99.90
38854;DHT22;24606;51.992;4.198;2023-12-22T20:22:09;10.70;99.90
38854;DHT22;24606;51.992;4.198;2023-12-22T20:27:13;10.60;99.90
38854;DHT22;24606;51.992;4.198;2023-12-22T20:32:15;10.60;99.90
38854;DHT22;24606;51.992;4.198;2023-12-22T20:37:17;10.60;99.90
38854;DHT22;24606;51.992;4.198;2023-12-22T20:42:21;10.40;99.90
38854;DHT22;24606;51.992;4.198;2023-12-22T20:47:23;10.50;99.90
38854;DHT22;24606;51.992;4.198;2023-12-22T20:52:25;10.50;99.90
38854;DHT22;24606;51.992;4.198;2023-12-22T20:57:29;10.60;99.90
38854;DHT22;24606;51.992;4.198;2023-12-22T21:02:31;10.40;99.90
38854;DHT22;24606;51.992;4.198;2023-12-22T21:07:34;10.50;99.90
38854;DHT22;24606;51.992;4.198;2023-12-22T21:12:38;10.50;99.90
38854;DHT22;24606;51.992;4.198;2023-12-22T21:17:40;10.40;99.90
38854;DHT22;24606;51.992;4.198;2023-12-22T21:22:46;10.40;99.90
38854;DHT22;24606;51.992;4.198;2023-12-22T21:27:51;10.60;99.90
38854;DHT22;24606;51.992;4.198;2023-12-22T21:32:54;10.80;99.90
38854;DHT22;24606;51.992;4.198;2023-12-22T21:37:56;10.80;99.90
38854;DHT22;24606;51.992;4.198;2023-12-22T21:43:00;10.60;99.90
38854;DHT22;24606;51.992;4.198;2023-12-22T21:48:02;10.60;99.90
38854;DHT22;24606;51.992;4.198;2023-12-22T21:53:04;10.50;99.90
38854;DHT22;24606;51.992;4.198;2023-12-22T21:58:09;10.70;99.90
38854;DHT22;24606;51.992;4.198;2023-12-22T22:03:11;10.60;99.90
38854;DHT22;24606;51.992;4.198;2023-12-22T22:08:14;10.60;99.90
38854;DHT22;24606;51.992;4.198;2023-12-22T22:13:17;10.70;99.90
38854;DHT22;24606;51.992;4.198;2023-12-22T22:18:19;10.60;99.90
38854;DHT22;24606;51.992;4.198;2023-12-22T22:23:24;10.50;99.90
38854;DHT22;24606;51.992;4.198;2023-12-22T22:28:28;10.40;99.90
38854;DHT22;24606;51.992;4.198;2023-12-22T22:33:31;10.40;99.90
38854;DHT22;24606;51.992;4.198;2023-12-22T22:38:33;10.40;99.90
38854;DHT22;24606;51.992;4.198;2023-12-22T22:43:36;10.30;99.90
38854;DHT22;24606;51.992;4.198;2023-12-22T22:48:38;10.40;99.90
38854;DHT22;24606;51.992;4.198;2023-12-22T22:53:40;10.40;99.90
38854;DHT22;24606;51.992;4.198;2023-12-22T22:58:44;10.40;99.90
38854;DHT22;24606;51.992;4.198;2023-12-22T23:03:46;10.30;99.90
38854;DHT22;24606;51.992;4.198;2023-12-22T23:08:48;10.40;99.90
38854;DHT22;24606;51.992;4.198;2023-12-22T23:13:55;10.70;99.90
38854;DHT22;24606;51.992;4.198;2023-12-22T23:18:58;10.30;99.90
38854;DHT22;24606;51.992;4.198;2023-12-22T23:24:00;10.40;99.90
38854;DHT22;24606;51.992;4.198;2023-12-22T23:29:06;10.40;99.90
38854;DHT22;24606;51.992;4.198;2023-12-22T23:34:08;10.10;99.90
38854;DHT22;24606;51.992;4.198;2023-12-22T23:39:10;10.20;99.90
38854;DHT22;24606;51.992;4.198;2023-12-22T23:44:14;10.20;99.90
38854;DHT22;24606;51.992;4.198;2023-12-22T23:49:16;10.30;99.90
38854;DHT22;24606;51.992;4.198;2023-12-22T23:54:18;10.30;99.90
38854;DHT22;24606;51.992;4.198;2023-12-22T23:59:21;10.00;99.90
